OI25 weather

Ross Field
Greenfield, Ohio, United States

Public forecast

Using degrees Fahrenheit for public forecast. Weather courtesy of forecast.io.

Closest aviation weather report (METAR) to Ross Field

Closest report is Ross County Airport, 16.0 nm (29.7 km) ENE. Retrieved 2020/07/02 12:15 UTC (5 minutes ago):

KRZT 021215Z AUTO 00000KT 10SM CLR 21/18 A3001 RMK AO2 PWINO

Closest aviation forecast (TAF) to Ross Field

Closest forecast is Wilmington Airpark, 20.7 nm (38.2 km) W. Retrieved 2020/07/02 12:22 UTC (0 seconds ago):

TAF KILN 021120Z 0212/0312 05007KT P6SM FEW050 FM030000 03004KT P6SM SKC